Terminal Aerodrome Forecast
Issued by NWS

Home | Current Version | Previous Version | Text Only | Print | Product List | Glossary On
Versions: 1 2 3 4 5 6 7 8 9 10 11 12 13 14 15 16 17
000
FTUS43 KBIS 201611 AAB
TAFJMS
TAF AMD
KJMS 201611Z 2016/2112 29008KT 6SM BR BKN009 OVC060
      TEMPO 2017/2019 3SM -RA BR SCT009 BKN035 OVC060
     FM202000 31017KT P6SM BKN100
     FM210100 26008KT P6SM FEW200
     FM210800 21005KT P6SM BKN050=

USA.gov is the U.S. government's official web portal to all federal, state and local government web resources and services.